Time;durP1;ratioP1;P1;durP2;ratioP2;P2;SDS_P1;SDS_P2;PMS_P1;PMS_P2;Temp;Humidity;BMP_temperature;BMP_pressure;BME280_temperature;BME280_humidity;BME280_pressure;Samples;Min_cycle;Max_cycle;Signal;HPM_P1;HPM_P2
2023/10/23 00:02:24;;;;;;;5.95;3.65;;;7.30;99.90;;;;;;5051598;28;20041;-81
2023/10/23 00:04:49;;;;;;;8.50;4.32;;;7.30;99.90;;;;;;5051775;28;20411;-81
2023/10/23 00:07:15;;;;;;;5.65;4.13;;;7.30;99.90;;;;;;5051630;28;20047;-81
2023/10/23 00:09:41;;;;;;;5.68;4.03;;;7.40;99.90;;;;;;5034754;28;20072;-81
2023/10/23 00:12:08;;;;;;;5.90;3.90;;;7.30;99.90;;;;;;5051940;28;20244;-81
2023/10/23 00:14:34;;;;;;;4.88;3.63;;;7.30;99.90;;;;;;5051664;28;20095;-81
2023/10/23 00:17:00;;;;;;;5.07;3.55;;;7.30;99.90;;;;;;5051926;28;20500;-81
2023/10/23 00:19:26;;;;;;;5.00;3.70;;;7.30;99.90;;;;;;5034444;28;20516;-81
2023/10/23 00:21:52;;;;;;;8.15;4.28;;;7.30;99.90;;;;;;5050939;28;20128;-81
2023/10/23 00:24:18;;;;;;;6.50;4.07;;;7.30;99.90;;;;;;5051286;28;20128;-81
2023/10/23 00:26:43;;;;;;;6.13;4.03;;;7.30;99.90;;;;;;5051491;28;20041;-81
2023/10/23 00:29:09;;;;;;;6.63;4.30;;;7.20;99.90;;;;;;5050745;28;20045;-82
2023/10/23 00:31:34;;;;;;;5.45;4.35;;;7.20;99.90;;;;;;5034407;28;20032;-81
2023/10/23 00:34:00;;;;;;;6.53;3.97;;;7.20;99.90;;;;;;5034565;28;20072;-81
2023/10/23 00:36:25;;;;;;;5.95;4.22;;;7.20;99.90;;;;;;5034641;28;20068;-81
2023/10/23 00:38:51;;;;;;;6.57;3.97;;;7.20;99.90;;;;;;5051581;28;20115;-81
2023/10/23 00:41:16;;;;;;;5.80;4.38;;;7.20;99.90;;;;;;5050922;28;20051;-82
2023/10/23 00:43:42;;;;;;;6.05;4.63;;;7.20;99.90;;;;;;5051423;28;20082;-82
2023/10/23 00:46:13;;;;;;;7.55;4.65;;;7.20;99.90;;;;;;5051025;28;20040;-82
2023/10/23 00:48:39;;;;;;;6.53;4.53;;;7.20;99.90;;;;;;5051055;28;20045;-82
2023/10/23 00:51:05;;;;;;;6.95;5.00;;;7.10;99.90;;;;;;5053320;28;20055;-82
2023/10/23 00:53:36;;;;;;;6.25;4.88;;;7.10;99.90;;;;;;5048338;28;20126;-81
2023/10/23 00:56:04;;;;;;;5.55;4.57;;;7.10;99.90;;;;;;5034786;28;20268;-82
2023/10/23 00:58:32;;;;;;;8.25;4.95;;;7.10;99.90;;;;;;5049858;28;20041;-82
2023/10/23 01:00:58;;;;;;;6.63;5.00;;;7.10;99.90;;;;;;5033279;28;20041;-82
2023/10/23 01:03:25;;;;;;;7.30;4.50;;;7.10;99.90;;;;;;5051861;28;20045;-82
2023/10/23 01:05:50;;;;;;;9.15;5.53;;;7.00;99.90;;;;;;5051447;28;20045;-82
2023/10/23 01:08:16;;;;;;;6.70;4.85;;;7.00;99.90;;;;;;5050596;28;20048;-82
2023/10/23 01:10:42;;;;;;;7.30;4.65;;;7.00;99.90;;;;;;5033434;28;20045;-82
2023/10/23 01:13:08;;;;;;;8.52;5.30;;;7.00;99.90;;;;;;5049802;28;20462;-82
2023/10/23 01:15:34;;;;;;;7.10;4.95;;;7.00;99.90;;;;;;5034495;28;20514;-81
2023/10/23 01:18:00;;;;;;;6.07;4.80;;;7.00;99.90;;;;;;5047581;28;20480;-81
2023/10/23 01:20:27;;;;;;;7.22;4.80;;;7.00;99.90;;;;;;5070982;28;20090;-81
2023/10/23 01:22:58;;;;;;;7.20;4.80;;;7.00;99.90;;;;;;5034761;28;20041;-81
2023/10/23 01:25:24;;;;;;;6.70;4.70;;;6.90;99.90;;;;;;5051517;28;20412;-81
2023/10/23 01:27:50;;;;;;;8.13;4.30;;;6.90;99.90;;;;;;5034643;28;20451;-81
2023/10/23 01:30:16;;;;;;;6.55;4.80;;;6.80;99.90;;;;;;5050628;28;20041;-81
2023/10/23 01:32:41;;;;;;;5.65;4.22;;;6.80;99.90;;;;;;5034021;28;20037;-81
2023/10/23 01:35:07;;;;;;;6.57;4.80;;;6.70;99.90;;;;;;5050927;28;20072;-81
2023/10/23 01:37:33;;;;;;;8.27;5.38;;;6.80;99.90;;;;;;5054843;28;20036;-81
2023/10/23 01:39:59;;;;;;;7.18;5.18;;;6.70;99.90;;;;;;5054109;28;20561;-81
2023/10/23 01:42:30;;;;;;;6.18;4.70;;;6.60;99.90;;;;;;5038073;28;20075;-81
2023/10/23 01:44:55;;;;;;;8.32;5.07;;;6.70;99.90;;;;;;5054417;28;20051;-81
2023/10/23 01:47:22;;;;;;;8.52;4.82;;;6.70;99.90;;;;;;5036541;28;20041;-81
2023/10/23 01:49:48;;;;;;;7.15;5.20;;;6.70;99.90;;;;;;5036620;28;20051;-81
2023/10/23 01:52:14;;;;;;;5.93;4.40;;;6.60;99.90;;;;;;5054388;28;20045;-81
2023/10/23 01:54:39;;;;;;;6.95;4.95;;;6.60;99.90;;;;;;5037513;28;20458;-81
2023/10/23 01:57:05;;;;;;;8.00;4.40;;;6.60;99.90;;;;;;5054188;28;20032;-81
2023/10/23 01:59:30;;;;;;;7.25;5.28;;;6.50;99.90;;;;;;5054361;28;20044;-82
2023/10/23 02:01:56;;;;;;;7.00;4.80;;;6.50;99.90;;;;;;5054845;28;20045;-82
2023/10/23 02:04:21;;;;;;;7.22;4.80;;;6.50;99.90;;;;;;5053841;28;20041;-81
2023/10/23 02:06:47;;;;;;;6.63;5.10;;;6.40;99.90;;;;;;5037572;28;20048;-82
2023/10/23 02:09:12;;;;;;;6.10;4.80;;;6.50;99.90;;;;;;5037250;28;20201;-82
2023/10/23 02:11:38;;;;;;;6.43;5.25;;;6.40;99.90;;;;;;5054391;28;20045;-82
2023/10/23 02:14:04;;;;;;;8.90;5.80;;;6.40;99.90;;;;;;5037722;28;20496;-82
2023/10/23 02:16:29;;;;;;;8.20;5.70;;;6.40;99.90;;;;;;5072473;28;20036;-82
2023/10/23 02:18:55;;;;;;;7.18;4.82;;;6.40;99.90;;;;;;5062919;28;20548;-81
2023/10/23 02:21:20;;;;;;;7.40;5.18;;;6.40;99.90;;;;;;5038211;28;20548;-81
2023/10/23 02:23:46;;;;;;;11.48;5.65;;;6.40;99.90;;;;;;5054510;28;20115;-81
2023/10/23 02:26:11;;;;;;;7.85;5.80;;;6.40;99.90;;;;;;5037433;28;20091;-81
2023/10/23 02:28:37;;;;;;;7.95;5.93;;;6.30;99.90;;;;;;5037074;28;20049;-81
2023/10/23 02:31:03;;;;;;;7.30;5.30;;;6.30;99.90;;;;;;5054454;28;20044;-81
2023/10/23 02:33:29;;;;;;;9.07;5.93;;;6.30;99.90;;;;;;5053758;28;20041;-81
2023/10/23 02:35:55;;;;;;;7.75;5.20;;;6.30;99.90;;;;;;5054014;28;20037;-81
2023/10/23 02:38:21;;;;;;;8.98;5.60;;;6.30;99.90;;;;;;5038039;28;20514;-81
2023/10/23 02:40:53;;;;;;;6.15;5.10;;;6.20;99.90;;;;;;5054112;28;20124;-81
2023/10/23 02:43:19;;;;;;;8.70;5.85;;;6.20;99.90;;;;;;5054518;28;20041;-81
2023/10/23 02:45:45;;;;;;;9.95;5.72;;;6.10;99.90;;;;;;5054917;28;20040;-81
2023/10/23 02:48:11;;;;;;;9.40;6.72;;;6.20;99.90;;;;;;5054427;28;20045;-81
2023/10/23 02:50:36;;;;;;;10.13;6.50;;;6.20;99.90;;;;;;5054297;28;20041;-81
2023/10/23 02:53:02;;;;;;;9.57;6.22;;;6.20;99.90;;;;;;5054144;28;20037;-81
2023/10/23 02:55:28;;;;;;;7.90;6.18;;;6.20;99.90;;;;;;5053599;28;20519;-81
2023/10/23 02:57:54;;;;;;;9.77;6.30;;;6.20;99.90;;;;;;5037077;28;20041;-81
2023/10/23 03:00:21;;;;;;;8.55;5.70;;;6.10;99.90;;;;;;5036637;28;20048;-81
2023/10/23 03:02:46;;;;;;;8.45;5.95;;;6.20;99.90;;;;;;5053743;28;20040;-81
2023/10/23 03:05:14;;;;;;;8.55;5.97;;;6.10;99.90;;;;;;5037103;28;20037;-81
2023/10/23 03:07:39;;;;;;;7.78;5.70;;;6.10;99.90;;;;;;5054492;28;20041;-81
2023/10/23 03:10:05;;;;;;;14.45;6.78;;;6.10;99.90;;;;;;5053585;28;20037;-81
2023/10/23 03:12:31;;;;;;;8.27;5.82;;;6.10;99.90;;;;;;5054020;28;20041;-81
2023/10/23 03:14:56;;;;;;;7.97;6.05;;;6.00;99.90;;;;;;5053843;28;20045;-81
2023/10/23 03:17:22;;;;;;;9.05;6.15;;;6.00;99.90;;;;;;5037644;28;20040;-81
2023/10/23 03:19:48;;;;;;;7.57;5.85;;;6.00;99.90;;;;;;5054030;28;20416;-81
2023/10/23 03:22:13;;;;;;;8.82;7.20;;;6.00;99.90;;;;;;5054283;28;20052;-81
2023/10/23 03:24:39;;;;;;;7.55;6.53;;;6.10;99.90;;;;;;5053969;28;20044;-81
2023/10/23 03:27:04;;;;;;;8.63;6.32;;;6.00;99.90;;;;;;5053401;28;20055;-81
2023/10/23 03:29:30;;;;;;;9.43;7.28;;;6.00;99.90;;;;;;5053029;28;20041;-81
2023/10/23 03:31:56;;;;;;;9.63;7.15;;;6.00;99.90;;;;;;5051531;28;20037;-81
2023/10/23 03:34:26;;;;;;;9.43;6.80;;;6.00;99.90;;;;;;5052895;28;20041;-81
2023/10/23 03:36:52;;;;;;;12.38;7.32;;;6.00;99.90;;;;;;5053579;28;20037;-81
2023/10/23 03:39:17;;;;;;;9.45;6.75;;;5.90;99.90;;;;;;5036685;28;20056;-81
2023/10/23 03:41:42;;;;;;;7.82;6.38;;;6.00;99.90;;;;;;5057647;28;20500;-81
2023/10/23 03:44:08;;;;;;;10.05;7.28;;;5.90;99.90;;;;;;5066171;28;20037;-81
2023/10/23 03:46:34;;;;;;;8.68;6.53;;;5.90;99.90;;;;;;5054248;28;20040;-81
2023/10/23 03:49:00;;;;;;;10.40;7.65;;;5.90;99.90;;;;;;5065262;28;20123;-80
2023/10/23 03:51:25;;;;;;;9.63;6.53;;;5.90;99.90;;;;;;5057209;28;20095;-81
2023/10/23 03:53:51;;;;;;;10.20;7.10;;;5.90;99.90;;;;;;5044274;28;20049;-81
2023/10/23 03:56:16;;;;;;;10.18;7.88;;;5.90;99.90;;;;;;5036987;28;20500;-81
2023/10/23 03:58:45;;;;;;;13.82;8.18;;;5.90;99.90;;;;;;5054014;28;20045;-80
2023/10/23 04:01:12;;;;;;;9.00;7.38;;;5.90;99.90;;;;;;5054343;28;20071;-81
2023/10/23 04:03:37;;;;;;;9.77;7.60;;;5.90;99.90;;;;;;5053688;28;20051;-81
2023/10/23 04:06:04;;;;;;;10.85;8.20;;;5.80;99.90;;;;;;5052972;28;20120;-81
2023/10/23 04:08:30;;;;;;;9.50;6.72;;;5.80;99.90;;;;;;5053396;28;20048;-81
2023/10/23 04:10:55;;;;;;;9.48;6.82;;;5.80;99.90;;;;;;5059995;28;20028;-81
2023/10/23 04:13:21;;;;;;;8.60;6.70;;;5.80;99.90;;;;;;5052803;28;20374;-81
2023/10/23 04:15:57;;;;;;;8.52;7.18;;;5.80;99.90;;;;;;5053349;28;20091;-81
2023/10/23 04:18:24;;;;;;;8.27;6.75;;;5.70;99.90;;;;;;5036519;28;20508;-81
2023/10/23 04:20:50;;;;;;;8.02;6.50;;;5.70;99.90;;;;;;5052395;28;20037;-81
2023/10/23 04:23:15;;;;;;;9.02;7.32;;;5.70;99.90;;;;;;5053517;28;20043;-80
2023/10/23 04:25:41;;;;;;;7.88;6.50;;;5.70;99.90;;;;;;5036797;28;20087;-81
2023/10/23 04:28:06;;;;;;;8.68;6.75;;;5.60;99.90;;;;;;5036403;28;20041;-80
2023/10/23 04:30:32;;;;;;;8.95;6.47;;;5.60;99.90;;;;;;5052759;28;20033;-81
2023/10/23 04:32:58;;;;;;;9.38;7.40;;;5.60;99.90;;;;;;5053117;28;20029;-80
2023/10/23 04:35:23;;;;;;;8.90;6.80;;;5.60;99.90;;;;;;5052808;28;20390;-80
2023/10/23 04:37:49;;;;;;;9.63;7.15;;;5.60;99.90;;;;;;5036647;28;20627;-81
2023/10/23 04:40:15;;;;;;;10.90;7.35;;;5.60;99.90;;;;;;5052737;28;20123;-81
2023/10/23 04:42:40;;;;;;;9.90;6.97;;;5.60;99.90;;;;;;5035623;28;20065;-81
2023/10/23 04:45:06;;;;;;;8.68;6.30;;;5.60;99.90;;;;;;5053246;28;20081;-81
2023/10/23 04:47:32;;;;;;;10.50;7.00;;;5.50;99.90;;;;;;5035742;28;20055;-81
2023/10/23 04:49:57;;;;;;;8.95;6.43;;;5.50;99.90;;;;;;5051526;28;20037;-81
2023/10/23 04:52:23;;;;;;;8.02;6.20;;;5.50;99.90;;;;;;5052564;28;20045;-80
2023/10/23 04:54:51;;;;;;;7.82;6.45;;;5.50;99.90;;;;;;5052511;28;20064;-81
2023/10/23 04:57:17;;;;;;;9.27;6.63;;;5.40;99.90;;;;;;5052020;28;20044;-81
2023/10/23 04:59:42;;;;;;;8.32;5.90;;;5.40;99.90;;;;;;5052152;28;20036;-81
2023/10/23 05:02:08;;;;;;;15.65;5.20;;;5.40;99.90;;;;;;5052206;28;20416;-80
2023/10/23 05:04:33;;;;;;;23.60;5.60;;;5.50;99.90;;;;;;5052748;28;20520;-81
2023/10/23 05:06:59;;;;;;;39.50;6.20;;;5.40;99.90;;;;;;5051949;28;20048;-81
2023/10/23 05:09:25;;;;;;;16.02;5.47;;;5.40;99.90;;;;;;5051773;28;20127;-81
2023/10/23 05:11:50;;;;;;;7.15;4.90;;;5.30;99.90;;;;;;5055847;28;20033;-81
2023/10/23 05:14:16;;;;;;;6.93;5.20;;;5.30;99.90;;;;;;5055741;28;20068;-81
2023/10/23 05:16:41;;;;;;;7.53;5.43;;;5.20;99.90;;;;;;5040622;28;20055;-81
2023/10/23 05:19:10;;;;;;;6.63;5.30;;;5.30;99.90;;;;;;5056006;28;20041;-81
2023/10/23 05:21:37;;;;;;;6.05;5.00;;;5.20;99.90;;;;;;5056974;28;20045;-81
2023/10/23 05:24:03;;;;;;;8.38;5.45;;;5.20;99.90;;;;;;5056728;28;20599;-81
2023/10/23 05:26:28;;;;;;;7.38;5.68;;;5.20;99.90;;;;;;5039615;28;20056;-81
2023/10/23 05:28:54;;;;;;;8.43;5.50;;;5.20;99.90;;;;;;5039954;28;20063;-81
2023/10/23 05:31:19;;;;;;;6.82;5.47;;;5.20;99.90;;;;;;5057379;28;20037;-81
2023/10/23 05:33:45;;;;;;;8.05;5.65;;;5.10;99.90;;;;;;5056593;28;20128;-81
2023/10/23 05:36:11;;;;;;;6.70;5.32;;;5.10;99.90;;;;;;5056348;28;20163;-81
2023/10/23 05:38:37;;;;;;;6.43;4.93;;;5.10;99.90;;;;;;5040055;28;20349;-81
2023/10/23 05:41:03;;;;;;;7.32;5.93;;;5.10;99.90;;;;;;5040386;28;20037;-81
2023/10/23 05:43:29;;;;;;;8.18;6.25;;;5.10;99.90;;;;;;5041150;28;20048;-81
2023/10/23 05:45:55;;;;;;;6.65;4.88;;;5.10;99.90;;;;;;5059806;28;20045;-81
2023/10/23 05:48:21;;;;;;;8.75;5.80;;;5.00;99.90;;;;;;5040168;28;20055;-81
2023/10/23 05:51:00;;;;;;;6.90;5.15;;;5.00;99.90;;;;;;5056821;28;20055;-81
2023/10/23 05:53:26;;;;;;;7.90;5.80;;;5.00;99.90;;;;;;5057404;28;20037;-81
2023/10/23 05:55:52;;;;;;;7.00;5.70;;;4.90;99.90;;;;;;5063419;28;20096;-81
2023/10/23 05:58:18;;;;;;;9.02;5.70;;;4.80;99.90;;;;;;5041872;28;20565;-81
2023/10/23 06:00:44;;;;;;;6.15;5.00;;;4.80;99.90;;;;;;5049845;28;20454;-80
2023/10/23 06:03:09;;;;;;;7.20;5.50;;;4.80;99.90;;;;;;5059980;28;20399;-80
2023/10/23 06:05:44;;;;;;;9.20;5.78;;;4.80;99.90;;;;;;5048918;28;20199;-81
2023/10/23 06:08:10;;;;;;;6.55;4.85;;;4.80;99.90;;;;;;5058275;28;20124;-81
2023/10/23 06:10:42;;;;;;;30.73;4.55;;;4.80;99.90;;;;;;5044378;28;20061;-81
2023/10/23 06:13:08;;;;;;;15.13;3.83;;;4.80;99.90;;;;;;5057038;28;20041;-81
2023/10/23 06:15:34;;;;;;;21.73;4.05;;;4.70;99.90;;;;;;5043827;28;20041;-81
2023/10/23 06:18:00;;;;;;;12.68;4.70;;;4.70;99.90;;;;;;5062040;28;20435;-81
2023/10/23 06:20:26;;;;;;;5.78;4.90;;;4.70;99.90;;;;;;5058339;28;20416;-80
2023/10/23 06:22:51;;;;;;;5.07;4.32;;;4.70;99.90;;;;;;5043455;28;20116;-80
2023/10/23 06:25:17;;;;;;;6.07;5.03;;;4.70;99.90;;;;;;5046593;28;20389;-80
2023/10/23 06:27:42;;;;;;;6.45;5.32;;;4.70;99.90;;;;;;5057362;28;20048;-80
2023/10/23 06:30:08;;;;;;;9.23;4.65;;;4.70;99.90;;;;;;5059397;28;20097;-81
2023/10/23 06:32:34;;;;;;;24.10;4.03;;;4.60;99.90;;;;;;5040670;28;20048;-81
2023/10/23 06:35:00;;;;;;;72.03;4.78;;;4.60;99.90;;;;;;5056743;28;20043;-80
2023/10/23 06:37:25;;;;;;;30.20;3.65;;;4.60;99.90;;;;;;5057202;28;20523;-80
2023/10/23 06:39:51;;;;;;;6.65;3.05;;;4.60;99.90;;;;;;5055964;28;20041;-81
2023/10/23 06:42:16;;;;;;;5.95;2.42;;;4.60;99.90;;;;;;5055033;28;20044;-80
2023/10/23 06:44:42;;;;;;;2.35;2.15;;;4.60;99.90;;;;;;5055294;28;20040;-81
2023/10/23 06:47:07;;;;;;;4.30;2.30;;;4.60;99.90;;;;;;5055704;28;20045;-81
2023/10/23 06:49:33;;;;;;;2.83;2.22;;;4.70;99.90;;;;;;5039999;28;20051;-80
2023/10/23 06:51:59;;;;;;;2.92;2.20;;;4.60;99.90;;;;;;5059183;28;20119;-80
2023/10/23 06:54:26;;;;;;;3.70;2.40;;;4.70;99.90;;;;;;5055857;28;20164;-80
2023/10/23 06:56:52;;;;;;;2.97;2.33;;;4.70;99.90;;;;;;5055496;28;20095;-80
2023/10/23 06:59:18;;;;;;;3.65;2.80;;;4.70;99.90;;;;;;5038604;28;20037;-80
2023/10/23 07:01:43;;;;;;;3.83;2.90;;;4.70;99.90;;;;;;5057438;28;20049;-80
2023/10/23 07:04:09;;;;;;;4.10;3.05;;;4.70;99.90;;;;;;5039904;28;20492;-80
2023/10/23 07:06:34;;;;;;;4.85;4.30;;;4.70;99.90;;;;;;5039947;28;20045;-80
2023/10/23 07:09:00;;;;;;;5.65;4.60;;;4.80;99.90;;;;;;5056348;28;20045;-80
2023/10/23 07:11:26;;;;;;;6.88;4.30;;;4.80;99.90;;;;;;5056085;28;20086;-80
2023/10/23 07:13:51;;;;;;;4.50;3.85;;;4.80;99.90;;;;;;5056749;28;20140;-80
2023/10/23 07:16:18;;;;;;;5.68;3.95;;;4.90;99.90;;;;;;5038362;28;20047;-80
2023/10/23 07:18:45;;;;;;;4.30;3.80;;;4.90;99.90;;;;;;5055125;28;20084;-81
2023/10/23 07:21:10;;;;;;;6.55;4.70;;;4.90;99.90;;;;;;5054400;28;20519;-81
2023/10/23 07:23:36;;;;;;;5.88;4.60;;;4.90;99.90;;;;;;5053269;28;20045;-81
2023/10/23 07:26:12;;;;;;;5.00;4.50;;;4.90;99.90;;;;;;5038014;28;20040;-81
2023/10/23 07:28:38;;;;;;;5.53;4.25;;;5.00;99.90;;;;;;5054286;28;20128;-81
2023/10/23 07:31:05;;;;;;;4.75;4.00;;;5.10;99.90;;;;;;5036973;28;20178;-81
2023/10/23 07:33:31;;;;;;;4.03;3.53;;;5.20;99.90;;;;;;5053112;28;20523;-81
2023/10/23 07:36:02;;;;;;;3.50;3.20;;;5.20;99.90;;;;;;5054480;28;20060;-81
2023/10/23 07:38:28;;;;;;;3.80;3.40;;;5.30;99.90;;;;;;5035781;28;20041;-81
2023/10/23 07:40:53;;;;;;;4.20;3.78;;;5.30;99.90;;;;;;5036812;28;20040;-81
2023/10/23 07:43:19;;;;;;;5.90;4.70;;;5.40;99.90;;;;;;5036837;28;20041;-81
2023/10/23 07:45:44;;;;;;;5.13;4.63;;;5.50;99.90;;;;;;5037236;28;20032;-81
2023/10/23 07:48:09;;;;;;;6.63;5.90;;;5.60;99.90;;;;;;5053271;28;20036;-81
2023/10/23 07:50:35;;;;;;;7.13;6.10;;;5.70;99.90;;;;;;5036365;28;20119;-81
2023/10/23 07:53:01;;;;;;;11.38;6.75;;;5.80;99.90;;;;;;5036340;28;20657;-81
2023/10/23 07:55:26;;;;;;;10.43;8.32;;;6.00;99.90;;;;;;5053351;28;20094;-81
2023/10/23 07:57:52;;;;;;;12.27;9.27;;;6.10;99.90;;;;;;5037052;28;20492;-81
2023/10/23 08:00:18;;;;;;;12.05;9.15;;;6.30;99.90;;;;;;5052296;28;20170;-81
2023/10/23 08:02:43;;;;;;;13.23;9.57;;;6.40;99.90;;;;;;5053115;28;20052;-81
2023/10/23 08:05:09;;;;;;;11.13;9.23;;;6.60;99.90;;;;;;5053065;28;20245;-81
2023/10/23 08:07:34;;;;;;;13.55;9.80;;;6.60;99.90;;;;;;5036651;28;20040;-81
2023/10/23 08:10:00;;;;;;;12.35;9.48;;;6.80;99.90;;;;;;5053019;28;20439;-81
2023/10/23 08:12:25;;;;;;;13.40;9.40;;;6.90;99.90;;;;;;5053110;28;20045;-81
2023/10/23 08:14:51;;;;;;;12.75;8.93;;;7.10;99.90;;;;;;5035281;28;20059;-81
2023/10/23 08:17:16;;;;;;;12.95;9.85;;;7.20;99.90;;;;;;5052847;28;20119;-80
2023/10/23 08:19:42;;;;;;;12.43;9.52;;;7.30;99.90;;;;;;5036184;28;20047;-81
2023/10/23 08:22:08;;;;;;;13.48;10.00;;;7.40;99.90;;;;;;5036125;28;20040;-81
2023/10/23 08:24:34;;;;;;;14.38;9.43;;;7.50;99.90;;;;;;5053107;28;20128;-80
2023/10/23 08:26:59;;;;;;;12.15;9.55;;;7.60;99.90;;;;;;5053584;28;20068;-81
2023/10/23 08:29:26;;;;;;;13.23;9.95;;;7.70;99.90;;;;;;5052218;28;20068;-81
2023/10/23 08:31:53;;;;;;;12.05;9.35;;;7.90;99.90;;;;;;5036086;28;20497;-81
2023/10/23 08:34:21;;;;;;;11.90;9.27;;;8.00;99.90;;;;;;5035640;28;20055;-81
2023/10/23 08:36:47;;;;;;;13.23;8.90;;;8.10;99.90;;;;;;5060751;28;20111;-81
2023/10/23 08:39:13;;;;;;;12.20;9.35;;;8.20;99.90;;;;;;5073787;28;20083;-81
2023/10/23 08:41:39;;;;;;;14.50;10.02;;;8.20;99.90;;;;;;5055251;28;20103;-81
2023/10/23 08:44:05;;;;;;;12.15;9.25;;;8.30;99.90;;;;;;5053223;28;20159;-81
2023/10/23 08:46:32;;;;;;;11.52;8.70;;;8.40;99.90;;;;;;5054498;28;20052;-81
2023/10/23 08:48:58;;;;;;;10.88;8.88;;;8.50;99.90;;;;;;5054425;28;20044;-81
2023/10/23 08:51:25;;;;;;;11.82;9.18;;;8.60;99.90;;;;;;5053260;28;20080;-80
2023/10/23 08:53:55;;;;;;;13.48;9.68;;;8.70;99.90;;;;;;5052399;28;20041;-80
2023/10/23 08:56:22;;;;;;;13.13;9.68;;;8.80;99.90;;;;;;5051851;28;20143;-80
2023/10/23 08:58:55;;;;;;;10.70;8.77;;;8.80;99.90;;;;;;5036045;28;20048;-81
2023/10/23 09:01:20;;;;;;;10.50;8.77;;;8.90;99.90;;;;;;5035596;28;20626;-81
2023/10/23 09:03:46;;;;;;;11.77;8.40;;;8.90;99.90;;;;;;5053807;28;20222;-80
2023/10/23 09:06:16;;;;;;;11.55;9.32;;;9.00;99.90;;;;;;5037490;28;20045;-80
2023/10/23 09:08:42;;;;;;;10.82;8.90;;;9.10;99.90;;;;;;5033493;28;20175;-79
2023/10/23 09:11:08;;;;;;;10.43;8.70;;;9.10;99.90;;;;;;5033982;28;20463;-80
2023/10/23 09:13:38;;;;;;;10.43;8.40;;;9.20;99.90;;;;;;5050453;28;20041;-80
2023/10/23 09:16:08;;;;;;;12.75;8.65;;;9.30;99.90;;;;;;5032852;28;20041;-80
2023/10/23 09:18:49;;;;;;;13.88;8.60;;;9.30;99.90;;;;;;5051394;28;20449;-80
2023/10/23 09:21:15;;;;;;;10.95;8.65;;;9.40;99.90;;;;;;5051473;28;20408;-80
2023/10/23 09:23:50;;;;;;;11.32;8.57;;;9.50;99.90;;;;;;5035607;28;20115;-80
2023/10/23 09:26:16;;;;;;;10.23;8.65;;;9.50;99.90;;;;;;5035524;28;20500;-80
2023/10/23 09:28:41;;;;;;;10.27;8.10;;;9.60;99.90;;;;;;5035184;28;20091;-80
2023/10/23 09:31:07;;;;;;;11.25;8.70;;;9.60;99.90;;;;;;5051351;28;20079;-80
2023/10/23 09:33:33;;;;;;;11.77;8.52;;;10.10;99.90;;;;;;5052431;28;20047;-80
2023/10/23 09:36:00;;;;;;;10.80;7.65;;;9.80;99.90;;;;;;5052263;28;20229;-80
2023/10/23 09:38:26;;;;;;;12.18;8.52;;;9.90;99.90;;;;;;5052805;28;20500;-80
2023/10/23 09:40:56;;;;;;;12.60;9.23;;;10.00;99.90;;;;;;5036515;28;20037;-80
2023/10/23 09:43:23;;;;;;;11.50;8.48;;;10.10;99.90;;;;;;5052920;28;20033;-80
2023/10/23 09:45:51;;;;;;;9.93;8.52;;;10.20;99.90;;;;;;5052889;28;20037;-80
2023/10/23 09:48:18;;;;;;;11.32;8.68;;;10.30;99.90;;;;;;5036324;28;20052;-80
2023/10/23 09:50:46;;;;;;;11.57;8.70;;;10.40;99.90;;;;;;5037029;28;20036;-79
2023/10/23 09:53:13;;;;;;;10.40;8.38;;;10.50;99.90;;;;;;5053289;28;20041;-80
2023/10/23 09:55:40;;;;;;;12.32;9.07;;;10.60;99.90;;;;;;5036555;28;20087;-80
2023/10/23 09:58:14;;;;;;;10.23;8.50;;;10.60;99.90;;;;;;5059735;28;20366;-79
2023/10/23 10:00:45;;;;;;;11.88;8.63;;;10.70;99.90;;;;;;5040958;28;20408;-80
2023/10/23 10:03:16;;;;;;;10.68;8.68;;;10.80;99.90;;;;;;5057312;28;20100;-80
2023/10/23 10:05:53;;;;;;;9.77;7.72;;;10.90;99.90;;;;;;5056976;28;20057;-80
2023/10/23 10:08:21;;;;;;;9.60;8.00;;;10.90;99.90;;;;;;5055831;28;20067;-80
2023/10/23 10:10:48;;;;;;;10.13;8.00;;;11.10;99.90;;;;;;5039580;28;20040;-80
2023/10/23 10:13:15;;;;;;;9.48;7.65;;;11.20;99.90;;;;;;5040379;28;20047;-79
2023/10/23 10:15:43;;;;;;;8.18;7.20;;;11.20;99.90;;;;;;5056386;28;20049;-80
2023/10/23 10:18:10;;;;;;;9.32;7.38;;;11.40;99.90;;;;;;5057419;28;20041;-80
2023/10/23 10:20:37;;;;;;;8.32;7.05;;;11.40;99.90;;;;;;5056194;28;20186;-80
2023/10/23 10:23:17;;;;;;;8.90;6.75;;;11.50;99.90;;;;;;5041854;28;20123;-80
2023/10/23 10:25:45;;;;;;;8.73;6.82;;;11.50;99.90;;;;;;5039662;28;20048;-79
2023/10/23 10:28:11;;;;;;;10.55;7.40;;;11.60;99.90;;;;;;5056879;28;20124;-79
2023/10/23 10:30:41;;;;;;;8.48;6.60;;;11.60;99.90;;;;;;5039471;28;20040;-80
2023/10/23 10:33:19;;;;;;;9.63;6.35;;;11.70;99.90;;;;;;5056308;28;20037;-80
2023/10/23 10:35:58;;;;;;;7.78;6.63;;;11.80;99.90;;;;;;5056422;28;20044;-79
2023/10/23 10:38:25;;;;;;;9.80;6.80;;;12.00;99.90;;;;;;5057103;28;20048;-80
2023/10/23 10:40:59;;;;;;;10.60;7.00;;;12.00;99.90;;;;;;5056007;28;20051;-80
2023/10/23 10:43:29;;;;;;;9.90;6.28;;;12.10;99.90;;;;;;5062119;28;20100;-80
2023/10/23 10:45:55;;;;;;;8.55;6.15;;;12.10;99.90;;;;;;5056301;28;20037;-80
2023/10/23 10:48:23;;;;;;;6.90;5.70;;;12.20;99.90;;;;;;5055731;28;20045;-80
2023/10/23 10:50:48;;;;;;;8.40;5.32;;;12.20;99.90;;;;;;5052066;28;20553;-80
2023/10/23 10:53:14;;;;;;;8.57;5.68;;;12.30;99.90;;;;;;5076919;28;20115;-80
2023/10/23 10:55:43;;;;;;;7.72;5.60;;;12.30;99.90;;;;;;5058840;28;20050;-79
2023/10/23 10:58:10;;;;;;;8.02;5.30;;;12.40;99.90;;;;;;5041308;28;20032;-79
2023/10/23 11:00:37;;;;;;;8.77;5.40;;;12.40;99.90;;;;;;5055183;28;20044;-79
2023/10/23 11:03:03;;;;;;;5.68;4.97;;;12.40;99.90;;;;;;5054627;28;20036;-79
2023/10/23 11:05:29;;;;;;;6.15;5.05;;;12.50;99.90;;;;;;5055360;28;20041;-80
2023/10/23 11:07:55;;;;;;;7.43;5.53;;;12.60;99.90;;;;;;5054740;28;20403;-78
2023/10/23 11:10:21;;;;;;;8.55;4.95;;;12.60;99.90;;;;;;5055061;28;20041;-80
2023/10/23 11:12:47;;;;;;;7.22;5.18;;;12.70;99.90;;;;;;5038462;28;20128;-79
2023/10/23 11:15:13;;;;;;;6.22;4.45;;;12.80;99.90;;;;;;5054027;28;20045;-79
2023/10/23 11:17:43;;;;;;;6.38;4.68;;;12.90;99.90;;;;;;5037395;28;20071;-79
2023/10/23 11:20:10;;;;;;;5.78;3.80;;;13.00;99.90;;;;;;5056521;28;20071;-79
2023/10/23 11:22:40;;;;;;;6.18;3.45;;;13.00;99.90;;;;;;5054314;28;20041;-80
2023/10/23 11:25:08;;;;;;;4.32;2.92;;;13.10;99.90;;;;;;5038435;28;20063;-79
2023/10/23 11:27:34;;;;;;;5.85;3.50;;;13.10;99.90;;;;;;5055191;28;20072;-79
2023/10/23 11:30:00;;;;;;;5.47;3.20;;;13.10;99.90;;;;;;5054240;28;20427;-79
2023/10/23 11:32:28;;;;;;;3.53;2.40;;;13.20;99.90;;;;;;5037691;28;20036;-79
2023/10/23 11:35:00;;;;;;;4.47;2.55;;;13.20;99.90;;;;;;5054038;28;20056;-79
2023/10/23 11:37:25;;;;;;;4.10;2.30;;;13.30;99.90;;;;;;5037780;28;20039;-79
2023/10/23 11:39:51;;;;;;;3.88;2.13;;;13.30;99.90;;;;;;5053671;28;20131;-79
2023/10/23 11:42:17;;;;;;;3.58;2.10;;;13.30;99.90;;;;;;5054165;28;20490;-79
2023/10/23 11:44:42;;;;;;;5.55;2.45;;;13.30;99.90;;;;;;5054059;28;20044;-78
2023/10/23 11:47:08;;;;;;;6.38;3.45;;;13.30;99.90;;;;;;5053971;28;20041;-79
2023/10/23 11:49:33;;;;;;;9.73;3.83;;;13.30;99.90;;;;;;5037718;28;20037;-79
2023/10/23 11:52:00;;;;;;;5.95;3.80;;;13.30;99.90;;;;;;5053081;28;20043;-79
2023/10/23 11:54:27;;;;;;;5.93;4.10;;;13.30;99.90;;;;;;5054890;28;20412;-80
2023/10/23 11:56:57;;;;;;;7.68;4.47;;;13.30;99.90;;;;;;5054192;28;20041;-79
2023/10/23 11:59:23;;;;;;;7.43;3.95;;;13.40;99.90;;;;;;5053132;28;20047;-80
2023/10/23 12:01:56;;;;;;;4.32;3.50;;;13.40;99.90;;;;;;5053025;28;20483;-79
2023/10/23 12:04:22;;;;;;;5.88;3.78;;;13.40;99.90;;;;;;5040625;28;20412;-80
2023/10/23 12:06:47;;;;;;;4.60;3.65;;;13.40;99.90;;;;;;5055274;28;20037;-79
2023/10/23 12:09:13;;;;;;;6.57;3.78;;;13.50;99.90;;;;;;5054620;28;20037;-80
2023/10/23 12:11:40;;;;;;;5.68;4.10;;;13.50;99.90;;;;;;5038799;28;20037;-80
2023/10/23 12:14:06;;;;;;;8.05;4.70;;;13.50;99.90;;;;;;5038177;28;20373;-79
2023/10/23 12:16:32;;;;;;;9.98;4.88;;;13.50;99.90;;;;;;5054858;28;20147;-80
2023/10/23 12:18:59;;;;;;;8.63;5.10;;;13.60;99.90;;;;;;5052054;28;20068;-79
2023/10/23 12:21:25;;;;;;;6.70;4.72;;;13.50;99.90;;;;;;5035947;28;20068;-79
2023/10/23 12:23:51;;;;;;;11.38;5.50;;;13.60;99.90;;;;;;5037160;28;20051;-79
2023/10/23 12:26:18;;;;;;;8.75;5.72;;;13.90;99.90;;;;;;5054413;28;20041;-79
2023/10/23 12:28:44;;;;;;;10.20;5.97;;;13.60;99.90;;;;;;5053539;28;20116;-79
2023/10/23 12:31:10;;;;;;;7.85;6.10;;;13.60;99.90;;;;;;5037012;28;20102;-80
2023/10/23 12:33:35;;;;;;;8.25;6.05;;;13.70;99.90;;;;;;5053451;28;20032;-79
2023/10/23 12:36:03;;;;;;;7.93;6.38;;;13.70;99.90;;;;;;5037317;28;20119;-80
2023/10/23 12:38:30;;;;;;;8.40;6.32;;;13.70;99.90;;;;;;5053336;28;20037;-80
2023/10/23 12:40:56;;;;;;;8.52;6.47;;;13.70;99.90;;;;;;5052353;28;20508;-80
2023/10/23 12:43:22;;;;;;;8.18;5.60;;;13.70;99.90;;;;;;5053166;28;20493;-79
2023/10/23 12:45:48;;;;;;;6.43;4.80;;;13.70;99.90;;;;;;5053497;28;20044;-79
2023/10/23 12:48:13;;;;;;;6.93;4.70;;;13.70;99.90;;;;;;5053411;28;20128;-79
2023/10/23 12:50:39;;;;;;;7.45;5.13;;;13.70;99.90;;;;;;5057610;28;20048;-78